Time;durP1;ratioP1;P1;durP2;ratioP2;P2;SDS_P1;SDS_P2;PMS_P1;PMS_P2;Temp;Humidity;BMP_temperature;BMP_pressure;BME280_temperature;BME280_humidity;BME280_pressure;Samples;Min_cycle;Max_cycle;Signal;HPM_P1;HPM_P2
2021/06/03 00:00:38;;;;;;;2.55;1.33;;;;;;;27.24;19.74;98908.38;5096655;28;20376;-83
2021/06/03 00:03:08;;;;;;;1.45;1.13;;;;;;;27.56;20.11;98910.53;5096336;28;20028;-83
2021/06/03 00:05:58;;;;;;;2.30;1.27;;;;;;;27.16;20.41;98920.25;5095500;28;20069;-83
2021/06/03 00:08:26;;;;;;;3.50;1.33;;;;;;;27.20;19.94;98906.84;5095673;28;20074;-84
2021/06/03 00:10:56;;;;;;;2.63;1.15;;;;;;;27.44;19.62;98910.41;5095360;28;20028;-84
2021/06/03 00:13:25;;;;;;;2.88;1.40;;;;;;;27.62;19.66;98911.59;5095793;28;20086;-83
2021/06/03 00:15:51;;;;;;;2.53;1.88;;;;;;;27.68;19.47;98914.69;5095433;28;20035;-84
2021/06/03 00:18:18;;;;;;;3.08;1.40;;;;;;;27.51;19.77;98913.84;5095020;28;20056;-83
2021/06/03 00:20:45;;;;;;;2.70;1.60;;;;;;;27.39;19.63;98911.72;5094100;28;20035;-84
2021/06/03 00:23:11;;;;;;;3.00;1.23;;;;;;;27.49;19.33;98907.06;5095314;28;20032;-83
2021/06/03 00:25:37;;;;;;;1.65;1.25;;;;;;;27.67;19.58;98915.91;5080753;28;20028;-83
2021/06/03 00:28:04;;;;;;;2.13;1.50;;;;;;;27.41;20.05;98909.25;5092277;28;20029;-83
2021/06/03 00:30:32;;;;;;;2.25;1.27;;;;;;;27.24;19.81;98916.81;5095522;28;20051;-83
2021/06/03 00:32:58;;;;;;;3.53;1.60;;;;;;;27.40;19.71;98921.75;5094885;28;20039;-84
2021/06/03 00:35:24;;;;;;;2.40;1.20;;;;;;;27.51;19.63;98924.34;5095185;28;20030;-84
2021/06/03 00:37:51;;;;;;;3.08;1.55;;;;;;;27.44;19.69;98921.69;5095067;28;20036;-83
2021/06/03 00:40:19;;;;;;;2.13;1.13;;;;;;;27.17;19.84;98928.25;5095245;28;20032;-83
2021/06/03 00:42:45;;;;;;;2.00;1.30;;;;;;;27.35;19.69;98925.06;5095162;28;20031;-83
2021/06/03 00:45:14;;;;;;;2.85;1.48;;;;;;;27.56;19.21;98930.28;5094769;28;20441;-83
2021/06/03 00:47:41;;;;;;;1.75;1.13;;;;;;;27.61;19.01;98932.53;5094463;28;20052;-83
2021/06/03 00:50:18;;;;;;;2.13;1.17;;;;;;;27.68;18.57;98935.22;5087312;28;20024;-83
2021/06/03 00:52:45;;;;;;;3.53;1.30;;;;;;;27.82;18.54;98931.28;5074502;28;20032;-83
2021/06/03 00:55:11;;;;;;;3.28;1.40;;;;;;;27.58;18.93;98929.81;5086426;28;20035;-83
2021/06/03 00:57:37;;;;;;;1.65;1.30;;;;;;;27.59;18.57;98926.56;5094892;28;20545;-83
2021/06/03 01:00:10;;;;;;;4.10;1.45;;;;;;;27.67;18.45;98930.00;5094480;28;20480;-83
2021/06/03 01:02:36;;;;;;;1.60;1.25;;;;;;;27.74;18.45;98933.47;5074053;28;20056;-83
2021/06/03 01:05:18;;;;;;;3.10;1.85;;;;;;;27.51;18.59;98929.97;5074616;28;20032;-83
2021/06/03 01:07:44;;;;;;;2.50;1.33;;;;;;;27.35;19.12;98928.66;5073650;28;20116;-83
2021/06/03 01:10:17;;;;;;;3.10;1.50;;;;;;;27.14;19.47;98934.75;5074403;28;20121;-83
2021/06/03 01:12:51;;;;;;;2.67;1.60;;;;;;;27.09;19.21;98928.84;5074442;28;20039;-83
2021/06/03 01:15:19;;;;;;;3.88;1.30;;;;;;;26.94;19.47;98927.53;5074935;28;20389;-83
2021/06/03 01:17:46;;;;;;;2.15;1.15;;;;;;;27.04;19.54;98924.50;5079817;28;20113;-83
2021/06/03 01:20:13;;;;;;;3.65;1.65;;;;;;;26.48;20.09;98937.66;5094084;28;20415;-83
2021/06/03 01:22:53;;;;;;;3.20;1.23;;;;;;;26.37;20.09;98934.22;5094140;28;20069;-83
2021/06/03 01:25:22;;;;;;;1.38;1.08;;;;;;;26.61;20.09;98932.97;5082205;28;20032;-83
2021/06/03 01:27:50;;;;;;;1.58;1.10;;;;;;;26.55;20.46;98933.91;5073887;28;20044;-83
2021/06/03 01:30:22;;;;;;;3.60;1.13;;;;;;;26.21;20.77;98933.31;5073868;28;20051;-83
2021/06/03 01:33:10;;;;;;;1.73;1.00;;;;;;;26.07;20.83;98942.75;5073626;28;20032;-83
2021/06/03 01:35:39;;;;;;;1.58;0.90;;;;;;;25.89;21.27;98945.84;5087177;28;20395;-83
2021/06/03 01:38:10;;;;;;;6.15;2.67;;;;;;;25.73;21.03;98947.72;5093871;28;20071;-83
2021/06/03 01:40:39;;;;;;;1.58;0.98;;;;;;;25.86;20.96;98946.69;5093914;28;20028;-83
2021/06/03 01:43:07;;;;;;;2.67;1.25;;;;;;;26.03;20.38;98942.00;5093897;28;20028;-83
2021/06/03 01:45:34;;;;;;;1.50;0.82;;;;;;;26.28;20.01;98941.66;5093595;28;20020;-83
2021/06/03 01:48:01;;;;;;;1.95;0.77;;;;;;;26.61;19.51;98943.44;5092462;28;20492;-83
2021/06/03 01:50:28;;;;;;;2.22;1.35;;;;;;;26.78;19.23;98953.63;5088893;28;20024;-83
2021/06/03 01:52:55;;;;;;;1.85;0.80;;;;;;;26.72;19.58;98946.88;5089471;28;20032;-83
2021/06/03 01:55:21;;;;;;;4.40;1.13;;;;;;;26.64;19.43;98951.03;5093810;28;20390;-83
2021/06/03 01:57:48;;;;;;;2.50;0.98;;;;;;;26.71;19.42;98953.72;5093359;28;20055;-83
2021/06/03 02:00:18;;;;;;;1.95;1.00;;;;;;;26.81;19.34;98949.16;5093342;28;20464;-83
2021/06/03 02:02:44;;;;;;;2.58;1.10;;;;;;;26.68;19.59;98952.56;5093810;28;20111;-83
2021/06/03 02:05:11;;;;;;;1.90;1.15;;;;;;;26.34;19.83;98951.19;5093572;28;20032;-83
2021/06/03 02:07:37;;;;;;;1.98;0.90;;;;;;;26.45;19.92;98949.75;5093796;28;20028;-83
2021/06/03 02:10:07;;;;;;;1.45;1.05;;;;;;;26.49;19.51;98950.50;5093348;28;20032;-83
2021/06/03 02:12:37;;;;;;;2.00;0.82;;;;;;;26.39;19.65;98945.88;5093470;28;20028;-83
2021/06/03 02:15:06;;;;;;;1.27;0.80;;;;;;;26.39;19.69;98948.69;5093506;28;20035;-82
2021/06/03 02:17:39;;;;;;;1.67;0.80;;;;;;;26.35;19.55;98944.34;5091878;28;20051;-83
2021/06/03 02:20:19;;;;;;;1.23;0.90;;;;;;;26.26;19.70;98953.31;5093184;28;20040;-83
2021/06/03 02:22:49;;;;;;;1.27;0.70;;;;;;;26.43;19.52;98959.88;5093502;28;20037;-83
2021/06/03 02:25:16;;;;;;;1.60;0.77;;;;;;;26.36;19.66;98955.16;5093341;28;20504;-82
2021/06/03 02:27:44;;;;;;;1.00;0.73;;;;;;;26.44;19.70;98961.47;5093236;28;20499;-83
2021/06/03 02:30:11;;;;;;;1.52;0.80;;;;;;;26.45;19.48;98961.03;5093129;28;20058;-83
2021/06/03 02:32:38;;;;;;;1.70;0.73;;;;;;;26.61;19.00;98958.31;5093269;28;20444;-83
2021/06/03 02:35:10;;;;;;;1.13;0.70;;;;;;;26.68;19.27;98963.03;5093278;28;20035;-83
2021/06/03 02:37:40;;;;;;;1.42;0.77;;;;;;;26.86;19.10;98974.00;5093728;28;20028;-83
2021/06/03 02:40:10;;;;;;;1.85;0.93;;;;;;;27.00;19.03;98976.56;5093179;28;20119;-83
2021/06/03 02:42:39;;;;;;;1.75;0.75;;;;;;;26.96;18.81;98973.00;5093287;28;20107;-83
2021/06/03 02:45:09;;;;;;;1.08;0.63;;;;;;;26.93;18.82;98977.50;5093159;28;20016;-83
2021/06/03 02:47:38;;;;;;;0.95;0.70;;;;;;;26.89;19.33;98979.56;5086653;28;20041;-83
2021/06/03 02:50:09;;;;;;;0.95;0.85;;;;;;;26.78;19.56;98972.53;5073113;28;20056;-83
2021/06/03 02:52:35;;;;;;;1.40;0.75;;;;;;;26.84;18.83;98977.25;5072862;28;20384;-83
2021/06/03 02:55:07;;;;;;;1.20;0.63;;;;;;;26.86;19.06;98974.81;5072848;28;20063;-83
2021/06/03 02:57:33;;;;;;;2.05;0.88;;;;;;;26.93;19.25;98976.69;5088600;28;20028;-83
2021/06/03 03:00:00;;;;;;;2.67;0.80;;;;;;;27.08;19.06;98975.16;5092839;28;20092;-83
2021/06/03 03:02:26;;;;;;;1.52;0.88;;;;;;;27.17;19.21;98978.22;5093018;28;20028;-83
2021/06/03 03:04:52;;;;;;;1.98;0.70;;;;;;;27.04;19.09;98980.91;5092901;28;20020;-83
2021/06/03 03:07:18;;;;;;;1.20;0.80;;;;;;;27.04;19.27;98971.63;5092974;28;20033;-83
2021/06/03 03:09:44;;;;;;;0.50;0.50;;;;;;;26.92;19.66;98978.72;5092865;28;20044;-83
2021/06/03 03:12:11;;;;;;;3.17;0.90;;;;;;;26.66;20.09;98979.56;5092941;28;20065;-83
2021/06/03 03:14:38;;;;;;;1.25;0.82;;;;;;;26.43;20.22;98988.03;5093114;28;20024;-83
2021/06/03 03:17:04;;;;;;;1.02;0.82;;;;;;;26.09;21.08;98983.31;5092754;28;20036;-83
2021/06/03 03:19:31;;;;;;;1.67;1.15;;;;;;;26.27;20.72;98985.88;5092581;28;20467;-83
2021/06/03 03:21:58;;;;;;;1.05;0.80;;;;;;;26.43;20.47;98985.22;5092760;28;20039;-83
2021/06/03 03:24:24;;;;;;;0.80;0.60;;;;;;;26.89;19.77;98985.19;5093034;28;20031;-83
2021/06/03 03:26:51;;;;;;;0.80;0.70;;;;;;;27.29;19.40;98980.38;5092340;28;20032;-83
2021/06/03 03:29:17;;;;;;;1.45;0.80;;;;;;;27.56;19.42;98980.25;5092773;28;20603;-83
2021/06/03 03:31:43;;;;;;;1.52;0.90;;;;;;;27.73;19.40;98991.13;5095851;28;20036;-83
2021/06/03 03:34:09;;;;;;;2.17;1.15;;;;;;;27.67;19.25;98981.59;5096511;28;20031;-83
2021/06/03 03:36:35;;;;;;;1.17;1.00;;;;;;;27.21;20.14;98984.59;5096618;28;20035;-83
2021/06/03 03:39:02;;;;;;;1.40;1.00;;;;;;;26.87;20.64;98992.50;5096127;28;20126;-83
2021/06/03 03:41:28;;;;;;;1.95;1.00;;;;;;;26.91;21.12;98993.25;5096063;28;20115;-83
2021/06/03 03:43:54;;;;;;;4.68;0.98;;;;;;;27.21;20.99;98985.34;5096260;28;20028;-83
2021/06/03 03:46:20;;;;;;;2.65;1.20;;;;;;;27.47;20.65;98985.69;5091166;28;20025;-83
2021/06/03 03:48:46;;;;;;;2.72;1.58;;;;;;;27.94;20.02;98982.19;5075761;28;20028;-83
2021/06/03 03:51:14;;;;;;;2.78;1.10;;;;;;;28.25;20.28;98984.72;5086150;28;20135;-84
2021/06/03 03:53:42;;;;;;;2.97;1.00;;;;;;;28.73;19.74;98991.16;5096197;28;20028;-84
2021/06/03 03:56:08;;;;;;;1.60;1.30;;;;;;;28.99;19.88;98983.56;5095492;28;20033;-84
2021/06/03 03:58:38;;;;;;;2.25;1.80;;;;;;;28.78;19.55;98989.81;5095890;28;20035;-83
2021/06/03 04:01:05;;;;;;;3.33;2.13;;;;;;;28.55;20.03;98990.00;5095861;28;20097;-84
2021/06/03 04:03:31;;;;;;;1.88;1.27;;;;;;;28.42;20.12;98989.94;5095778;28;20090;-84
2021/06/03 04:05:58;;;;;;;3.25;1.42;;;;;;;28.51;19.72;98992.13;5095747;28;20121;-84
2021/06/03 04:08:25;;;;;;;2.47;1.13;;;;;;;29.08;19.48;98991.44;5095788;28;20028;-84
2021/06/03 04:10:51;;;;;;;1.48;1.15;;;;;;;29.15;19.37;98988.41;5095400;28;20054;-84
2021/06/03 04:13:17;;;;;;;2.30;1.33;;;;;;;29.40;19.30;98985.69;5095914;28;20028;-84
2021/06/03 04:15:43;;;;;;;2.03;1.33;;;;;;;29.59;19.66;98987.53;5095815;28;20387;-84
2021/06/03 04:18:09;;;;;;;1.73;1.63;;;;;;;29.63;19.37;98988.22;5095493;28;20393;-84
2021/06/03 04:20:35;;;;;;;2.47;1.85;;;;;;;29.60;19.89;98989.13;5095606;28;20043;-84
2021/06/03 04:23:02;;;;;;;3.70;1.80;;;;;;;29.35;19.06;98991.88;5095625;28;20126;-84
2021/06/03 04:25:28;;;;;;;3.58;1.95;;;;;;;29.11;19.36;98991.31;5095248;28;20050;-84
2021/06/03 04:27:55;;;;;;;3.90;1.85;;;;;;;28.83;19.05;98994.94;5076183;28;20048;-84
2021/06/03 04:30:23;;;;;;;4.78;1.60;;;;;;;29.04;19.57;98996.38;5075001;28;20081;-85
2021/06/03 04:32:50;;;;;;;4.72;1.33;;;;;;;29.17;19.99;99000.06;5073765;28;20158;-84
2021/06/03 04:35:19;;;;;;;2.35;1.55;;;;;;;29.31;19.18;98997.63;5075013;28;20036;-85
2021/06/03 04:37:49;;;;;;;1.98;1.17;;;;;;;29.53;19.49;98997.00;5077814;28;20031;-84
2021/06/03 04:40:17;;;;;;;4.20;1.43;;;;;;;29.59;19.18;99003.72;5088802;28;20472;-84
2021/06/03 04:42:45;;;;;;;2.03;1.33;;;;;;;29.73;19.03;99000.47;5089305;28;20103;-84
2021/06/03 04:45:13;;;;;;;3.55;1.70;;;;;;;29.56;20.21;99007.44;5094809;28;20036;-85
2021/06/03 04:47:40;;;;;;;3.58;1.63;;;;;;;29.41;19.41;99007.06;5094824;28;20039;-85
2021/06/03 04:50:07;;;;;;;2.42;1.65;;;;;;;29.42;19.92;99009.47;5094827;28;20118;-84
2021/06/03 04:52:33;;;;;;;4.82;2.13;;;;;;;29.57;19.41;99015.47;5094692;28;20031;-85
2021/06/03 04:55:03;;;;;;;3.00;1.52;;;;;;;29.70;19.25;99016.31;5094812;28;20034;-84
2021/06/03 04:57:29;;;;;;;2.97;1.52;;;;;;;29.86;19.72;99010.59;5094487;28;20020;-85
2021/06/03 04:59:55;;;;;;;2.20;1.40;;;;;;;30.06;19.90;99018.84;5094491;28;20449;-85
2021/06/03 05:02:22;;;;;;;4.13;1.77;;;;;;;30.15;18.78;99019.00;5094672;28;20047;-85
2021/06/03 05:04:49;;;;;;;2.85;1.85;;;;;;;30.44;19.47;99025.34;5094865;28;20032;-85
2021/06/03 05:07:15;;;;;;;1.15;1.00;;;;;;;30.62;19.60;99027.59;5094673;28;20035;-85
2021/06/03 05:09:41;;;;;;;2.08;1.45;;;;;;;30.98;18.77;99025.13;5094369;28;20058;-85
2021/06/03 05:12:08;;;;;;;4.88;1.50;;;;;;;31.25;18.59;99027.44;5094855;28;20403;-85
2021/06/03 05:14:34;;;;;;;1.40;1.10;;;;;;;31.33;18.70;99025.91;5094433;28;20028;-85
2021/06/03 05:17:01;;;;;;;2.17;1.40;;;;;;;30.82;18.62;99022.44;5094120;28;20039;-84
2021/06/03 05:19:27;;;;;;;1.55;1.20;;;;;;;30.62;19.35;99028.38;5094114;28;20056;-85
2021/06/03 05:21:53;;;;;;;1.67;1.30;;;;;;;30.53;19.69;99028.28;5094488;28;20492;-85
2021/06/03 05:24:19;;;;;;;1.95;1.27;;;;;;;30.90;19.74;99031.53;5093964;28;20024;-85
2021/06/03 05:26:46;;;;;;;3.28;1.23;;;;;;;31.36;18.90;99028.63;5094143;28;20032;-85
2021/06/03 05:29:15;;;;;;;0.90;0.90;;;;;;;30.88;19.60;99034.00;5092894;28;20036;-85
2021/06/03 05:31:43;;;;;;;1.95;0.90;;;;;;;31.30;18.62;99032.50;5093249;28;20411;-85
2021/06/03 05:34:09;;;;;;;4.93;1.33;;;;;;;30.90;19.01;99028.69;5091744;28;20036;-85
2021/06/03 05:36:35;;;;;;;1.17;1.08;;;;;;;30.69;19.77;99030.97;5094331;28;20027;-85
2021/06/03 05:39:02;;;;;;;1.08;0.80;;;;;;;31.13;18.89;99031.91;5093709;28;20110;-85
2021/06/03 05:41:32;;;;;;;1.25;1.00;;;;;;;31.70;18.90;99041.97;5094356;28;20125;-85
2021/06/03 05:43:59;;;;;;;1.10;0.80;;;;;;;30.67;18.64;99035.50;5073680;28;20503;-85
2021/06/03 05:46:26;;;;;;;2.00;0.55;;;;;;;30.54;18.54;99037.56;5073717;28;20097;-85
2021/06/03 05:48:52;;;;;;;1.88;1.15;;;;;;;30.42;19.40;99030.69;5072677;28;20500;-85
2021/06/03 05:51:19;;;;;;;1.00;0.60;;;;;;;30.46;19.00;99031.34;5092926;28;20024;-85
2021/06/03 05:53:45;;;;;;;2.17;0.95;;;;;;;30.87;19.33;99043.75;5093063;28;20042;-85
2021/06/03 05:56:11;;;;;;;1.42;0.70;;;;;;;31.35;18.80;99043.25;5093729;28;20036;-86
2021/06/03 05:58:37;;;;;;;1.05;0.77;;;;;;;31.67;18.55;99042.13;5093774;28;20032;-85
2021/06/03 06:01:04;;;;;;;0.88;0.65;;;;;;;32.58;17.49;99038.50;5093978;28;20028;-85
2021/06/03 06:03:38;;;;;;;1.05;0.80;;;;;;;33.06;17.11;99041.78;5093645;28;20035;-85
2021/06/03 06:08:37;;;;;;;1.85;0.63;;;;;;;33.56;16.74;99041.16;5073411;28;20382;-85
2021/06/03 06:11:04;;;;;;;1.38;0.70;;;;;;;34.15;16.90;99047.38;5073404;28;20119;-85
2021/06/03 06:13:30;;;;;;;2.17;0.73;;;;;;;33.77;16.07;99050.81;5072112;28;20420;-85
2021/06/03 06:15:56;;;;;;;1.70;0.73;;;;;;;33.96;16.50;99053.13;5073281;28;20059;-85
2021/06/03 06:18:23;;;;;;;0.80;0.75;;;;;;;34.12;16.32;99052.00;5073203;28;20106;-85
2021/06/03 06:20:49;;;;;;;1.20;0.70;;;;;;;34.12;16.37;99056.91;5072942;28;20036;-85
2021/06/03 06:23:16;;;;;;;0.77;0.60;;;;;;;32.80;17.89;99054.66;5075421;28;20021;-85
2021/06/03 06:25:43;;;;;;;0.60;0.60;;;;;;;31.83;18.65;99056.91;5093361;28;20111;-85
2021/06/03 06:28:14;;;;;;;0.80;0.80;;;;;;;32.17;17.57;99050.31;5093247;28;20071;-86
2021/06/03 06:30:40;;;;;;;;;;;;;;;33.22;16.71;99050.00;5089785;28;20020;-86
2021/06/03 06:33:06;;;;;;;1.98;0.90;;;;;;;33.87;17.00;99041.75;5073678;28;19912;-86
2021/06/03 06:35:33;;;;;;;0.63;0.50;;;;;;;34.04;15.81;99047.91;5072837;28;20028;-86
2021/06/03 06:38:00;;;;;;;1.02;0.52;;;;;;;34.28;16.24;99054.47;5073143;28;20120;-86
2021/06/03 06:40:27;;;;;;;5.70;0.98;;;;;;;34.03;16.29;99055.66;5077007;28;20109;-86
2021/06/03 06:42:54;;;;;;;0.95;0.50;;;;;;;33.48;15.26;99054.13;5093158;28;20028;-86
2021/06/03 06:45:27;;;;;;;1.23;0.65;;;;;;;33.80;14.94;99061.22;5092154;28;20032;-86
2021/06/03 06:47:53;;;;;;;1.08;0.98;;;;;;;33.99;16.02;99059.91;5093379;28;20040;-86
2021/06/03 06:50:21;;;;;;;1.00;0.63;;;;;;;33.50;16.52;99057.28;5092934;28;20093;-86
2021/06/03 06:52:47;;;;;;;0.45;0.40;;;;;;;32.93;16.80;99058.19;5093374;28;20103;-86
2021/06/03 06:55:13;;;;;;;1.02;0.50;;;;;;;31.52;17.20;99063.78;5092077;28;20032;-85
2021/06/03 06:57:40;;;;;;;1.13;0.68;;;;;;;32.29;16.40;99062.84;5093092;28;20433;-86
2021/06/03 07:00:10;;;;;;;0.60;0.50;;;;;;;31.48;16.72;99060.28;5092063;28;20360;-86
2021/06/03 07:02:36;;;;;;;;;;;;;;;31.95;16.55;99061.69;5093739;28;20098;-85
2021/06/03 07:05:07;;;;;;;0.95;0.40;;;;;;;32.78;17.03;99060.84;5093722;28;20333;-86
2021/06/03 07:07:33;;;;;;;0.68;0.60;;;;;;;33.35;16.55;99051.44;5097240;28;20036;-86
2021/06/03 07:10:00;;;;;;;0.45;0.45;;;;;;;33.52;16.15;99060.44;5096844;28;20032;-86
2021/06/03 07:12:27;;;;;;;0.80;0.60;;;;;;;33.44;15.01;99056.34;5096835;28;20029;-85
2021/06/03 07:14:53;;;;;;;1.50;0.50;;;;;;;33.67;16.51;99052.06;5096922;28;20074;-86
2021/06/03 07:17:19;;;;;;;1.60;0.40;;;;;;;32.66;16.35;99058.91;5096844;28;20043;-86
2021/06/03 07:19:45;;;;;;;0.45;0.45;;;;;;;32.67;17.29;99057.66;5096362;28;20036;-86
2021/06/03 07:22:11;;;;;;;0.38;0.38;;;;;;;31.66;17.92;99069.72;5095250;28;20024;-86
2021/06/03 07:24:40;;;;;;;0.93;0.40;;;;;;;32.35;16.38;99058.91;5096750;28;20093;-86
2021/06/03 07:27:07;;;;;;;0.47;0.35;;;;;;;33.24;16.75;99061.69;5096571;28;20028;-86
2021/06/03 07:29:33;;;;;;;0.43;0.40;;;;;;;33.75;15.46;99061.88;5091361;28;20043;-86
2021/06/03 07:31:59;;;;;;;0.40;0.40;;;;;;;33.52;15.07;99068.97;5093773;28;20493;-86
2021/06/03 07:34:26;;;;;;;0.55;0.40;;;;;;;34.09;15.60;99061.50;5075909;28;20028;-86
2021/06/03 07:36:52;;;;;;;2.20;0.70;;;;;;;34.17;16.08;99056.25;5091845;28;20123;-86
2021/06/03 07:39:21;;;;;;;0.80;0.60;;;;;;;34.90;14.97;99053.84;5096230;28;20524;-86
2021/06/03 07:41:47;;;;;;;0.40;0.40;;;;;;;35.52;14.54;99051.84;5096487;28;20043;-86
2021/06/03 07:44:13;;;;;;;0.60;0.40;;;;;;;35.21;14.91;99045.72;5096478;28;20031;-87
2021/06/03 07:46:39;;;;;;;0.68;0.45;;;;;;;35.15;13.43;99057.03;5096022;28;20040;-86
2021/06/03 07:49:06;;;;;;;1.70;0.40;;;;;;;35.34;14.51;99049.91;5095584;28;20032;-86
2021/06/03 07:51:33;;;;;;;0.75;0.43;;;;;;;34.99;14.54;99043.16;5096385;28;20119;-86
2021/06/03 07:53:59;;;;;;;0.40;0.40;;;;;;;33.68;14.13;99036.56;5096061;28;20028;-86
2021/06/03 07:56:25;;;;;;;0.47;0.47;;;;;;;32.09;15.63;99043.34;5096005;28;20127;-86
2021/06/03 07:58:52;;;;;;;1.17;0.55;;;;;;;31.50;15.90;99055.72;5095677;28;20452;-86
2021/06/03 08:01:18;;;;;;;0.40;0.40;;;;;;;31.84;16.68;99052.00;5095862;28;20081;-86
2021/06/03 08:03:44;;;;;;;1.00;0.82;;;;;;;33.34;15.33;99047.00;5095614;28;20035;-86
2021/06/03 08:06:11;;;;;;;1.30;0.98;;;;;;;33.64;14.91;99055.88;5095649;28;20024;-86
2021/06/03 08:08:37;;;;;;;0.77;0.40;;;;;;;34.27;13.89;99050.03;5095789;28;20059;-86
2021/06/03 08:11:08;;;;;;;0.57;0.45;;;;;;;33.39;15.82;99056.97;5095622;28;20116;-87
2021/06/03 08:13:35;;;;;;;1.55;0.32;;;;;;;33.85;15.97;99057.72;5096253;28;20106;-87
2021/06/03 08:16:01;;;;;;;0.30;0.30;;;;;;;33.29;15.48;99053.34;5095203;28;20028;-86
2021/06/03 08:18:27;;;;;;;0.30;0.30;;;;;;;34.07;15.26;99055.50;5095260;28;20102;-87
2021/06/03 08:20:57;;;;;;;0.85;0.50;;;;;;;34.83;13.79;99049.31;5095645;28;20107;-86
2021/06/03 08:23:25;;;;;;;0.60;0.32;;;;;;;34.98;13.26;99057.94;5088985;28;20024;-86
2021/06/03 08:25:52;;;;;;;0.47;0.40;;;;;;;34.95;13.91;99050.34;5075135;28;20102;-86
2021/06/03 08:28:18;;;;;;;0.55;0.45;;;;;;;33.60;14.55;99046.69;5080548;28;20027;-87
2021/06/03 08:30:47;;;;;;;0.38;0.30;;;;;;;32.91;15.90;99046.47;5095271;28;20036;-86
2021/06/03 08:33:13;;;;;;;0.77;0.30;;;;;;;34.17;16.15;99057.03;5095123;28;20032;-86
2021/06/03 08:35:40;;;;;;;2.33;0.35;;;;;;;33.41;13.92;99045.91;5095217;28;20051;-86
2021/06/03 08:38:10;;;;;;;3.85;0.40;;;;;;;33.57;14.56;99047.66;5095182;28;20036;-86
2021/06/03 08:40:46;;;;;;;0.88;0.35;;;;;;;34.00;15.28;99045.19;5095012;28;20361;-86
2021/06/03 08:43:13;;;;;;;1.55;0.38;;;;;;;33.62;16.14;99044.16;5095148;28;20036;-86
2021/06/03 08:45:42;;;;;;;1.08;0.32;;;;;;;34.60;14.69;99050.88;5095076;28;20028;-86
2021/06/03 08:48:10;;;;;;;0.57;0.40;;;;;;;33.78;15.39;99043.81;5095357;28;20044;-87
2021/06/03 08:50:40;;;;;;;0.77;0.40;;;;;;;34.61;14.08;99038.16;5094996;28;20542;-86
2021/06/03 08:53:07;;;;;;;0.65;0.38;;;;;;;33.42;14.67;99053.19;5094961;28;20115;-86
2021/06/03 08:58:21;;;;;;;0.50;0.40;;;;;;;33.88;15.12;99045.38;5094790;28;20055;-85
2021/06/03 09:00:48;;;;;;;0.30;0.30;;;;;;;33.88;15.46;99051.09;5094465;28;20069;-86
2021/06/03 09:03:16;;;;;;;0.20;0.20;;;;;;;34.35;15.08;99042.72;5093460;28;20037;-86
2021/06/03 09:05:42;;;;;;;1.75;0.30;;;;;;;33.78;15.74;99047.47;5094614;28;20103;-86
2021/06/03 09:08:26;;;;;;;0.35;0.20;;;;;;;34.00;14.54;99044.41;5095241;28;20407;-86
2021/06/03 09:11:21;;;;;;;0.35;0.30;;;;;;;34.20;14.79;99044.69;5094886;28;20373;-86
2021/06/03 09:13:55;;;;;;;0.40;0.40;;;;;;;34.03;14.88;99049.97;5081795;28;20051;-87
2021/06/03 09:16:32;;;;;;;0.40;0.40;;;;;;;32.70;16.29;99043.25;5094526;28;20035;-87
2021/06/03 09:19:04;;;;;;;0.93;0.35;;;;;;;33.72;15.60;99048.59;5094132;28;20063;-86
2021/06/03 09:21:35;;;;;;;1.85;0.40;;;;;;;34.92;13.51;99051.28;5092043;28;20035;-86
2021/06/03 09:24:10;;;;;;;;;;;;;;;34.64;13.87;99045.75;5074427;28;20043;-86
2021/06/03 09:26:56;;;;;;;0.40;0.40;;;;;;;33.77;13.27;99048.72;5074327;28;19913;-86
2021/06/03 09:29:24;;;;;;;0.40;0.28;;;;;;;33.33;14.14;99053.97;5073426;28;20488;-85
2021/06/03 09:31:51;;;;;;;4.70;0.30;;;;;;;32.94;15.75;99049.16;5087726;28;20484;-86
2021/06/03 09:34:19;;;;;;;1.55;0.60;;;;;;;32.85;15.01;99043.47;5094390;28;20056;-86
2021/06/03 09:36:54;;;;;;;1.40;0.30;;;;;;;32.38;15.60;99040.13;5094084;28;20042;-86
2021/06/03 09:39:38;;;;;;;0.47;0.47;;;;;;;32.36;15.15;99040.63;5094275;28;20039;-86
2021/06/03 09:42:08;;;;;;;0.43;0.43;;;;;;;30.50;17.59;99049.00;5094134;28;20039;-86
2021/06/03 09:44:49;;;;;;;0.95;0.43;;;;;;;31.75;15.55;99041.38;5093826;28;20032;-85
2021/06/03 09:47:17;;;;;;;1.42;0.60;;;;;;;32.90;15.97;99037.16;5094039;28;20043;-86
2021/06/03 09:49:46;;;;;;;0.73;0.43;;;;;;;31.35;16.58;99043.25;5093925;28;20403;-85
2021/06/03 09:52:15;;;;;;;0.60;0.45;;;;;;;32.12;15.56;99038.75;5093823;28;20067;-86
2021/06/03 09:54:51;;;;;;;1.40;0.50;;;;;;;31.11;16.10;99033.63;5093770;28;20028;-85
2021/06/03 09:57:18;;;;;;;1.00;0.60;;;;;;;29.68;17.92;99037.81;5094029;28;20119;-85
2021/06/03 09:59:57;;;;;;;0.30;0.30;;;;;;;29.49;18.29;99050.09;5092276;28;20107;-86
2021/06/03 10:02:23;;;;;;;3.15;0.50;;;;;;;29.75;18.78;99035.56;5092405;28;20057;-86
2021/06/03 10:04:52;;;;;;;2.05;0.60;;;;;;;29.51;17.91;99031.44;5093510;28;20577;-85
2021/06/03 10:07:22;;;;;;;0.60;0.60;;;;;;;30.63;18.32;99041.31;5093596;28;20028;-85
2021/06/03 10:09:53;;;;;;;0.40;0.40;;;;;;;32.54;17.55;99040.69;5093884;28;20036;-85
2021/06/03 10:12:22;;;;;;;;;;;;;;;32.43;14.53;99040.31;5094291;28;20454;-85
2021/06/03 10:15:17;;;;;;;1.27;0.90;;;;;;;32.84;17.08;99029.72;5092118;28;19912;-85
2021/06/03 10:17:58;;;;;;;2.28;0.47;;;;;;;32.24;17.02;99038.66;5088662;28;20076;-86
2021/06/03 10:20:40;;;;;;;2.60;0.55;;;;;;;32.52;16.08;99036.75;5093128;28;20024;-85
2021/06/03 10:23:19;;;;;;;0.40;0.40;;;;;;;32.61;15.64;99034.72;5091149;28;20402;-86
2021/06/03 10:25:48;;;;;;;2.22;0.60;;;;;;;33.22;15.24;99030.09;5093385;28;20020;-86
2021/06/03 10:28:19;;;;;;;0.55;0.40;;;;;;;33.30;15.90;99028.50;5093174;28;20039;-86
2021/06/03 10:30:52;;;;;;;0.50;0.30;;;;;;;34.55;15.22;99030.75;5091983;28;20028;-85
2021/06/03 10:33:25;;;;;;;1.63;0.40;;;;;;;35.00;15.05;99029.69;5093368;28;20051;-85
2021/06/03 10:35:55;;;;;;;1.02;0.30;;;;;;;36.06;14.21;99033.34;5093272;28;20028;-85
2021/06/03 10:38:22;;;;;;;1.00;0.60;;;;;;;34.52;14.00;99032.50;5093136;28;20086;-84
2021/06/03 10:40:57;;;;;;;0.50;0.50;;;;;;;31.83;16.42;99036.22;5097042;28;20044;-86
2021/06/03 10:43:24;;;;;;;0.68;0.60;;;;;;;32.50;15.49;99034.38;5097350;28;20088;-85
2021/06/03 10:45:51;;;;;;;1.23;0.60;;;;;;;30.85;17.68;99037.75;5097644;28;20039;-86
2021/06/03 10:48:17;;;;;;;1.27;0.40;;;;;;;30.45;16.89;99035.44;5097272;28;20103;-86
2021/06/03 10:50:54;;;;;;;0.50;0.50;;;;;;;29.81;16.79;99033.00;5097604;28;20164;-85
2021/06/03 10:53:25;;;;;;;1.27;0.60;;;;;;;31.05;16.21;99035.44;5097172;28;20490;-85
2021/06/03 10:55:53;;;;;;;0.60;0.60;;;;;;;33.48;15.73;99019.16;5097057;28;20024;-85
2021/06/03 10:58:31;;;;;;;2.47;0.40;;;;;;;33.01;16.10;99030.97;5096836;28;20123;-86
2021/06/03 11:01:09;;;;;;;0.73;0.60;;;;;;;32.64;15.64;99028.09;5097304;28;20074;-86
2021/06/03 11:03:47;;;;;;;1.50;0.40;;;;;;;31.63;17.53;99042.25;5097201;28;20058;-86
2021/06/03 11:06:22;;;;;;;0.95;0.50;;;;;;;33.11;17.22;99027.72;5097001;28;20387;-86
2021/06/03 11:09:07;;;;;;;0.40;0.40;;;;;;;34.30;14.79;99029.13;5097045;28;20042;-85
2021/06/03 11:11:38;;;;;;;0.57;0.50;;;;;;;35.05;15.56;99024.13;5096711;28;20035;-86
2021/06/03 11:14:09;;;;;;;;;;;;;;;35.40;13.24;99019.38;5095816;28;20418;-86
2021/06/03 11:16:35;;;;;;;;;;;;;;;35.71;12.95;99029.59;5097502;28;19964;-85
2021/06/03 11:19:01;;;;;;;0.50;0.45;;;;;;;35.79;14.02;99020.13;5095331;28;20011;-86
2021/06/03 11:21:41;;;;;;;1.23;0.80;;;;;;;35.16;13.93;99021.50;5076637;28;20442;-86
2021/06/03 11:24:30;;;;;;;2.90;0.50;;;;;;;33.99;14.32;99025.72;5076695;28;20036;-86
2021/06/03 11:27:01;;;;;;;0.82;0.50;;;;;;;35.10;14.86;99017.72;5076083;28;20032;-86
2021/06/03 11:29:52;;;;;;;0.40;0.40;;;;;;;36.84;14.66;99009.59;5080131;28;20028;-86
2021/06/03 11:32:24;;;;;;;1.48;0.60;;;;;;;35.82;13.79;99018.38;5071287;28;20049;-86
2021/06/03 11:34:56;;;;;;;1.15;0.55;;;;;;;34.99;14.50;99003.19;5076244;28;20476;-86
2021/06/03 11:37:41;;;;;;;0.57;0.50;;;;;;;33.20;14.45;99009.84;5092978;28;20020;-86
2021/06/03 11:40:08;;;;;;;0.80;0.50;;;;;;;33.54;14.66;99023.00;5096343;28;20024;-87
2021/06/03 11:42:38;;;;;;;0.60;0.50;;;;;;;34.36;14.86;99012.13;5096533;28;20108;-88
2021/06/03 11:45:20;;;;;;;0.50;0.50;;;;;;;34.68;15.46;99011.38;5096554;28;20036;-86
2021/06/03 11:47:46;;;;;;;0.50;0.50;;;;;;;35.64;14.23;99010.75;5095973;28;20024;-87